createdAt,value
2018-02-19T00:00:35.549Z,20.23
2018-02-19T00:03:03.515Z,20.90
2018-02-19T00:05:31.042Z,20.33
2018-02-19T00:07:58.557Z,18.85
2018-02-19T00:10:26.118Z,20.73
2018-02-19T00:12:53.662Z,20.83
2018-02-19T00:15:21.239Z,21.80
2018-02-19T00:17:48.758Z,20.62
2018-02-19T00:20:16.274Z,20.15
2018-02-19T00:22:43.866Z,21.05
2018-02-19T00:25:11.414Z,20.77
2018-02-19T00:27:39.103Z,22.00
2018-02-19T00:30:06.620Z,20.20
2018-02-19T00:32:34.138Z,20.80
2018-02-19T00:35:01.711Z,20.55
2018-02-19T00:37:29.226Z,21.75
2018-02-19T00:39:56.974Z,21.12
2018-02-19T00:42:24.486Z,22.50
2018-02-19T00:44:52.010Z,22.77
2018-02-19T00:47:19.549Z,21.52
2018-02-19T00:49:47.066Z,20.75
2018-02-19T00:52:14.672Z,20.37
2018-02-19T00:54:42.191Z,20.02
2018-02-19T00:57:09.708Z,20.12
2018-02-19T00:59:37.257Z,20.55
2018-02-19T01:02:04.774Z,21.10
2018-02-19T01:04:32.338Z,21.65
2018-02-19T01:06:59.865Z,22.48
2018-02-19T01:09:27.378Z,23.12
2018-02-19T01:11:54.920Z,23.38
2018-02-19T01:14:22.431Z,22.17
2018-02-19T01:16:50.466Z,22.90
2018-02-19T01:19:17.995Z,22.75
2018-02-19T01:21:45.567Z,22.85
2018-02-19T01:24:13.143Z,24.80
2018-02-19T01:26:40.659Z,21.77
2018-02-19T01:29:08.205Z,21.35
2018-02-19T01:31:35.723Z,21.00
2018-02-19T01:34:03.239Z,23.52
2018-02-19T01:36:30.787Z,22.65
2018-02-19T01:38:58.312Z,23.10
2018-02-19T01:41:25.871Z,20.90
2018-02-19T01:43:53.397Z,20.83
2018-02-19T01:46:20.921Z,21.65
2018-02-19T01:48:48.466Z,20.70
2018-02-19T01:51:15.982Z,20.77
2018-02-19T01:53:43.533Z,19.73
2018-02-19T01:56:11.055Z,19.15
2018-02-19T01:58:38.574Z,18.00
2018-02-19T02:01:06.109Z,20.10
2018-02-19T02:03:33.623Z,18.70
2018-02-19T02:06:01.317Z,20.90
2018-02-19T02:08:28.841Z,18.67
2018-02-19T02:10:56.362Z,15.98
2018-02-19T02:13:23.923Z,17.25
2018-02-19T02:15:51.441Z,18.73
2018-02-19T02:18:19.038Z,18.75
2018-02-19T02:20:46.550Z,19.70
2018-02-19T02:23:14.071Z,20.60
2018-02-19T02:25:41.614Z,19.65
2018-02-19T02:28:09.130Z,17.98
2018-02-19T02:30:37.887Z,18.40
2018-02-19T02:33:05.407Z,16.80
2018-02-19T02:35:32.921Z,18.95
2018-02-19T02:38:00.469Z,16.95
2018-02-19T02:40:27.998Z,17.98
2018-02-19T02:42:55.733Z,20.20
2018-02-19T02:45:23.249Z,17.42
2018-02-19T02:47:50.768Z,20.98
2018-02-19T02:50:18.305Z,18.60
2018-02-19T02:52:45.834Z,19.00
2018-02-19T02:55:13.555Z,19.20
2018-02-19T02:57:41.075Z,18.75
2018-02-19T03:00:08.595Z,18.10
2018-02-19T03:02:36.138Z,17.77
2018-02-19T03:05:03.657Z,17.58
2018-02-19T03:07:31.228Z,17.98
2018-02-19T03:09:58.745Z,19.00
2018-02-19T03:12:26.334Z,19.00
2018-02-19T03:14:53.869Z,17.85
2018-02-19T03:17:21.390Z,19.23
2018-02-19T03:19:49.122Z,19.45
2018-02-19T03:22:16.639Z,16.95
2018-02-19T03:24:44.149Z,17.50
2018-02-19T03:27:11.699Z,17.33
2018-02-19T03:29:39.215Z,16.52
2018-02-19T03:32:06.921Z,20.30
2018-02-19T03:34:34.486Z,16.67
2018-02-19T03:37:02.014Z,18.05
2018-02-19T03:39:29.554Z,17.23
2018-02-19T03:41:57.074Z,19.08
2018-02-19T03:44:24.646Z,17.65
2018-02-19T03:46:52.195Z,16.30
2018-02-19T03:49:19.712Z,17.70
2018-02-19T03:51:47.258Z,18.08
2018-02-19T03:54:14.785Z,19.15
2018-02-19T03:56:42.330Z,18.02
2018-02-19T03:59:09.850Z,18.58
2018-02-19T04:01:37.366Z,20.45
2018-02-19T04:04:04.897Z,18.95
2018-02-19T04:06:32.413Z,18.33
2018-02-19T04:08:59.957Z,17.65
2018-02-19T04:11:27.470Z,19.20
2018-02-19T04:13:54.991Z,18.85
2018-02-19T04:16:22.547Z,19.02
2018-02-19T04:18:50.059Z,16.62
2018-02-19T04:21:17.677Z,18.65
2018-02-19T04:23:45.198Z,19.75
2018-02-19T04:26:12.719Z,17.60
2018-02-19T04:28:40.258Z,19.37
2018-02-19T04:31:07.780Z,17.95
2018-02-19T04:33:35.488Z,18.20
2018-02-19T04:36:03.342Z,17.95
2018-02-19T04:38:30.854Z,17.33
2018-02-19T04:40:58.394Z,17.58
2018-02-19T04:43:25.910Z,18.50
2018-02-19T04:45:53.461Z,18.08
2018-02-19T04:48:20.978Z,16.55
2018-02-19T04:50:48.503Z,17.80
2018-02-19T04:53:16.066Z,17.33
2018-02-19T04:55:43.614Z,20.73
2018-02-19T04:58:11.400Z,18.52
2018-02-19T05:00:38.917Z,18.98
2018-02-19T05:03:06.449Z,16.45
2018-02-19T05:05:34.314Z,15.88
2018-02-19T05:08:01.829Z,17.15
2018-02-19T05:10:29.374Z,17.77
2018-02-19T05:12:56.913Z,18.75
2018-02-19T05:15:24.426Z,17.35
2018-02-19T05:17:51.959Z,17.83
2018-02-19T05:20:19.479Z,16.37
2018-02-19T05:22:47.037Z,18.02
2018-02-19T05:25:14.565Z,17.02
2018-02-19T05:27:42.079Z,18.55
2018-02-19T05:30:09.617Z,16.60
2018-02-19T05:32:37.141Z,17.50
2018-02-19T05:35:04.701Z,16.58
2018-02-19T05:37:32.220Z,14.20
2018-02-19T05:39:59.754Z,16.42
2018-02-19T05:42:27.298Z,14.70
2018-02-19T05:44:54.818Z,17.05
2018-02-19T05:47:22.573Z,22.02
2018-02-19T05:49:50.998Z,14.32
2018-02-19T05:52:18.518Z,21.27
2018-02-19T05:54:46.053Z,18.70
2018-02-19T05:57:13.569Z,14.52
2018-02-19T05:59:41.151Z,15.30
2018-02-19T06:02:08.667Z,17.65
2018-02-19T06:04:36.180Z,16.75
2018-02-19T06:07:03.726Z,14.10
2018-02-19T06:09:31.247Z,17.62
2018-02-19T06:11:58.995Z,15.10
2018-02-19T06:14:26.510Z,27.52
2018-02-19T06:16:54.540Z,17.50
2018-02-19T06:19:22.082Z,20.02
2018-02-19T06:21:49.600Z,16.60
2018-02-19T06:24:17.142Z,15.27
2018-02-19T06:26:44.662Z,14.40
2018-02-19T06:29:12.188Z,16.10
2018-02-19T06:31:39.739Z,14.60
2018-02-19T06:34:07.250Z,15.13
2018-02-19T06:36:34.998Z,16.92
2018-02-19T06:39:02.517Z,25.45
2018-02-19T06:41:30.472Z,17.87
2018-02-19T06:43:58.015Z,22.00
2018-02-19T06:46:25.529Z,15.68
2018-02-19T06:48:53.244Z,28.12
2018-02-19T06:51:20.775Z,17.35
2018-02-19T06:53:48.295Z,17.60
2018-02-19T06:56:15.841Z,18.37
2018-02-19T06:58:43.363Z,20.80
2018-02-19T07:01:11.309Z,19.60
2018-02-19T07:03:38.845Z,17.05
2018-02-19T07:06:06.368Z,21.42
2018-02-19T07:08:33.915Z,19.25
2018-02-19T07:11:01.437Z,19.37
2018-02-19T07:13:28.992Z,19.98
2018-02-19T07:15:56.513Z,21.05
2018-02-19T07:18:24.039Z,22.48
2018-02-19T07:20:51.582Z,23.35
2018-02-19T07:23:19.107Z,20.45
2018-02-19T07:25:46.895Z,18.58
2018-02-19T07:28:14.410Z,18.02
2018-02-19T07:30:41.927Z,27.25
2018-02-19T07:33:09.475Z,22.25
2018-02-19T07:35:36.993Z,20.20
2018-02-19T07:38:04.795Z,18.58
2018-02-19T07:40:32.312Z,19.95
2018-02-19T07:42:59.830Z,19.83
2018-02-19T07:45:27.389Z,17.33
2018-02-19T07:47:55.074Z,20.60
2018-02-19T07:50:22.641Z,20.75
2018-02-19T07:52:50.153Z,19.67
2018-02-19T07:55:17.778Z,19.08
2018-02-19T07:57:45.330Z,20.15
2018-02-19T08:00:12.846Z,19.75
2018-02-19T08:02:40.565Z,20.15
2018-02-19T08:05:08.083Z,16.73
2018-02-19T08:07:35.599Z,17.85
2018-02-19T08:10:03.138Z,19.55
2018-02-19T08:12:30.676Z,20.42
2018-02-19T08:14:58.388Z,18.12
2018-02-19T08:17:26.470Z,17.30
2018-02-19T08:19:54.806Z,18.15
2018-02-19T08:22:22.417Z,18.37
2018-02-19T08:24:49.934Z,18.12
2018-02-19T08:27:17.748Z,15.07
2018-02-19T08:29:45.279Z,17.10
2018-02-19T08:32:12.795Z,16.25
2018-02-19T08:34:40.333Z,17.92
2018-02-19T08:37:07.858Z,17.37
2018-02-19T08:39:35.432Z,15.40
2018-02-19T08:42:02.952Z,15.65
2018-02-19T08:44:30.478Z,14.73
2018-02-19T08:46:58.034Z,17.42
2018-02-19T08:49:25.618Z,16.50
2018-02-19T08:51:53.333Z,16.80
2018-02-19T08:54:20.862Z,17.12
2018-02-19T08:56:48.758Z,40.95
2018-02-19T08:59:16.331Z,19.30
2018-02-19T09:01:43.841Z,15.05
2018-02-19T09:04:11.414Z,15.75
2018-02-19T09:06:38.934Z,16.10
2018-02-19T09:09:06.450Z,14.90
2018-02-19T09:11:33.996Z,15.48
2018-02-19T09:14:01.510Z,16.25
2018-02-19T09:16:29.057Z,15.35
2018-02-19T09:18:56.578Z,13.48
2018-02-19T09:21:24.107Z,16.62
2018-02-19T09:23:51.669Z,16.08
2018-02-19T09:26:19.674Z,15.30
2018-02-19T09:28:47.426Z,14.68
2018-02-19T09:31:14.943Z,13.45
2018-02-19T09:33:42.462Z,14.73
2018-02-19T09:36:10.040Z,15.38
2018-02-19T09:38:37.554Z,15.82
2018-02-19T09:41:05.212Z,15.07
2018-02-19T09:43:32.734Z,14.20
2018-02-19T09:46:00.258Z,16.67
2018-02-19T09:48:27.803Z,16.87
2018-02-19T09:50:55.330Z,17.23
2018-02-19T09:53:22.882Z,18.17
2018-02-19T09:55:50.704Z,18.65
2018-02-19T09:58:18.240Z,19.55
2018-02-19T10:00:45.810Z,20.52
2018-02-19T10:03:13.330Z,17.75
2018-02-19T10:05:41.369Z,19.52
2018-02-19T10:08:09.307Z,20.33
2018-02-19T10:10:36.823Z,21.45
2018-02-19T10:13:04.373Z,20.65
2018-02-19T10:15:31.892Z,20.45
2018-02-19T10:17:59.626Z,21.00
2018-02-19T10:20:27.149Z,19.77
2018-02-19T10:22:54.667Z,21.75
2018-02-19T10:25:22.212Z,20.92
2018-02-19T10:27:49.726Z,19.98
2018-02-19T10:30:17.328Z,19.87
2018-02-19T10:32:44.891Z,21.75
2018-02-19T10:35:12.397Z,22.42
2018-02-19T10:37:39.946Z,27.20
2018-02-19T10:40:07.459Z,19.60
2018-02-19T10:42:35.217Z,20.35
2018-02-19T10:45:02.737Z,20.52
2018-02-19T10:47:30.256Z,20.95
2018-02-19T10:49:57.802Z,21.98
2018-02-19T10:52:25.348Z,20.88
2018-02-19T10:54:52.901Z,21.02
2018-02-19T10:57:20.427Z,20.33
2018-02-19T10:59:47.937Z,22.45
2018-02-19T11:02:15.509Z,21.75
2018-02-19T11:04:43.042Z,19.23
2018-02-19T11:07:10.809Z,18.12
2018-02-19T11:09:38.322Z,17.40
2018-02-19T11:12:05.849Z,19.27
2018-02-19T11:14:33.406Z,18.58
2018-02-19T11:17:01.041Z,21.33
2018-02-19T11:19:28.822Z,20.48
2018-02-19T11:21:56.346Z,19.95
2018-02-19T11:24:23.869Z,21.62
2018-02-19T11:26:51.414Z,19.95
2018-02-19T11:29:18.947Z,17.87
2018-02-19T11:31:46.609Z,20.73
2018-02-19T11:34:14.124Z,21.20
2018-02-19T11:36:41.638Z,21.40
2018-02-19T11:39:09.177Z,16.73
2018-02-19T11:41:36.693Z,19.27
2018-02-19T11:44:04.401Z,19.95
2018-02-19T11:46:31.920Z,17.90
2018-02-19T11:48:59.439Z,17.95
2018-02-19T11:51:27.006Z,18.52
2018-02-19T11:53:54.522Z,21.95
2018-02-19T11:56:22.205Z,17.92
2018-02-19T11:58:51.151Z,18.73
2018-02-19T12:01:18.641Z,22.13
2018-02-19T12:03:46.284Z,23.40
2018-02-19T12:06:13.835Z,20.88
2018-02-19T12:08:41.760Z,19.20
2018-02-19T12:11:09.944Z,21.77
2018-02-19T12:13:37.825Z,17.30
2018-02-19T12:16:06.936Z,20.58
2018-02-19T12:18:35.556Z,18.67
2018-02-19T12:21:03.389Z,17.05
2018-02-19T12:23:31.077Z,17.25
2018-02-19T12:25:58.986Z,17.85
2018-02-19T12:28:26.841Z,22.13
2018-02-19T12:30:54.712Z,16.70
2018-02-19T12:33:22.425Z,17.65
2018-02-19T12:35:51.056Z,18.80
2018-02-19T12:38:18.784Z,18.40
2018-02-19T12:40:46.687Z,17.85
2018-02-19T12:43:14.808Z,18.40
2018-02-19T12:45:43.033Z,16.75
2018-02-19T12:48:10.590Z,18.12
2018-02-19T12:50:38.443Z,18.55
2018-02-19T12:53:06.225Z,18.27
2018-02-19T12:55:34.738Z,17.87
2018-02-19T12:58:02.673Z,17.95
2018-02-19T13:00:30.536Z,16.52
2018-02-19T13:02:58.376Z,17.75
2018-02-19T13:05:26.291Z,18.25
2018-02-19T13:07:54.242Z,20.52
2018-02-19T13:10:22.008Z,17.55
2018-02-19T13:12:49.769Z,18.27
2018-02-19T13:15:17.636Z,19.02
2018-02-19T13:17:45.401Z,19.65
2018-02-19T13:20:13.680Z,17.42
2018-02-19T13:22:41.853Z,17.75
2018-02-19T13:25:09.821Z,18.05
2018-02-19T13:27:37.686Z,22.33
2018-02-19T13:30:05.660Z,16.40
2018-02-19T13:32:33.628Z,19.05
2018-02-19T13:35:02.515Z,19.50
2018-02-19T13:37:30.360Z,17.85
2018-02-19T13:39:58.247Z,16.48
2018-02-19T13:42:25.912Z,16.23
2018-02-19T13:44:53.776Z,16.00
2018-02-19T13:47:22.770Z,17.65
2018-02-19T13:49:50.636Z,18.23
2018-02-19T13:52:18.502Z,22.13
2018-02-19T13:54:46.367Z,18.40
2018-02-19T13:57:14.643Z,20.60
2018-02-19T13:59:42.616Z,21.08
2018-02-19T14:02:11.198Z,20.30
2018-02-19T14:04:39.063Z,17.17
2018-02-19T14:07:06.835Z,20.92
2018-02-19T14:09:35.390Z,17.42
2018-02-19T14:12:03.069Z,19.15
2018-02-19T14:14:30.938Z,19.77
2018-02-19T14:16:58.725Z,21.77
2018-02-19T14:19:26.672Z,21.65
2018-02-19T14:21:54.640Z,23.08
2018-02-19T14:24:24.355Z,21.73
2018-02-19T14:26:52.321Z,22.40
2018-02-19T14:29:19.925Z,19.80
2018-02-19T14:31:47.847Z,22.65
2018-02-19T14:34:15.707Z,22.90
2018-02-19T14:36:43.887Z,21.75
2018-02-19T14:39:11.754Z,21.70
2018-02-19T14:41:39.518Z,21.75
2018-02-19T14:44:07.161Z,20.60
2018-02-19T14:46:34.842Z,22.37
2018-02-19T14:49:02.793Z,21.83
2018-02-19T14:51:30.723Z,21.70
2018-02-19T14:53:59.363Z,23.12
2018-02-19T14:56:27.255Z,21.95
2018-02-19T14:58:54.883Z,21.05
2018-02-19T15:01:22.760Z,21.60
2018-02-19T15:03:50.378Z,22.92
2018-02-19T15:06:18.258Z,21.15
2018-02-19T15:08:45.957Z,21.58
2018-02-19T15:11:13.720Z,20.85
2018-02-19T15:13:41.681Z,23.33
2018-02-19T15:16:09.547Z,26.10
2018-02-19T15:18:37.618Z,22.92
2018-02-19T15:21:05.690Z,22.73
2018-02-19T15:23:33.864Z,23.38
2018-02-19T15:26:02.140Z,24.45
2018-02-19T15:28:30.724Z,22.00
2018-02-19T15:30:58.548Z,24.08
2018-02-19T15:33:27.582Z,20.17
2018-02-19T15:35:55.653Z,19.58
2018-02-19T15:38:23.623Z,21.95
2018-02-19T15:40:52.946Z,20.92
2018-02-19T15:43:20.890Z,23.92
2018-02-19T15:45:48.859Z,22.83
2018-02-19T15:48:16.624Z,21.48
2018-02-19T15:50:48.586Z,27.35
2018-02-19T15:53:16.453Z,19.95
2018-02-19T15:55:44.422Z,24.48
2018-02-19T15:58:12.455Z,24.02
2018-02-19T16:00:40.363Z,21.80
2018-02-19T16:03:08.289Z,23.45
2018-02-19T16:05:36.196Z,27.02
2018-02-19T16:08:04.784Z,22.75
2018-02-19T16:10:32.645Z,23.80
2018-02-19T16:13:01.032Z,22.98
2018-02-19T16:15:28.788Z,23.92
2018-02-19T16:17:56.713Z,23.42
2018-02-19T16:20:25.031Z,24.33
2018-02-19T16:22:52.796Z,22.08
2018-02-19T16:25:20.635Z,24.33
2018-02-19T16:27:49.653Z,23.10
2018-02-19T16:30:17.832Z,22.67
2018-02-19T16:32:45.798Z,22.70
2018-02-19T16:35:13.850Z,24.65
2018-02-19T16:37:42.352Z,21.75
2018-02-19T16:40:10.320Z,25.67
2018-02-19T16:42:38.185Z,23.25
2018-02-19T16:45:06.154Z,22.55
2018-02-19T16:47:34.022Z,23.20
2018-02-19T16:50:03.221Z,21.87
2018-02-19T16:52:31.187Z,21.90
2018-02-19T16:55:00.527Z,22.55
2018-02-19T16:57:28.763Z,23.92
2018-02-19T16:59:56.619Z,24.37
2018-02-19T17:02:25.524Z,24.80
2018-02-19T17:04:53.449Z,25.25
2018-02-19T17:07:21.355Z,26.40
2018-02-19T17:09:49.328Z,27.00
2018-02-19T17:12:17.152Z,29.37
2018-02-19T17:14:45.017Z,33.47
2018-02-19T17:17:12.986Z,30.75
2018-02-19T17:19:40.893Z,28.42
2018-02-19T17:22:08.866Z,28.90
2018-02-19T17:24:36.600Z,28.00
2018-02-19T17:27:04.380Z,28.95
2018-02-19T17:29:32.257Z,25.70
2018-02-19T17:32:00.031Z,25.73
2018-02-19T17:34:27.989Z,22.60
2018-02-19T17:36:55.865Z,23.55
2018-02-19T17:39:23.840Z,24.70
2018-02-19T17:41:51.901Z,25.50
2018-02-19T17:44:19.763Z,25.12
2018-02-19T17:46:48.410Z,22.70
2018-02-19T17:49:16.314Z,25.17
2018-02-19T17:51:44.387Z,27.55
2018-02-19T17:54:12.356Z,25.40
2018-02-19T17:56:40.200Z,24.05
2018-02-19T17:59:08.199Z,23.73
2018-02-19T18:01:36.536Z,23.20
2018-02-19T18:04:04.438Z,22.80
2018-02-19T18:06:32.469Z,23.00
2018-02-19T18:09:00.271Z,23.33
2018-02-19T18:11:28.240Z,22.60
2018-02-19T18:13:56.106Z,22.85
2018-02-19T18:16:23.937Z,23.02
2018-02-19T18:18:51.803Z,22.62
2018-02-19T18:21:19.809Z,23.30
2018-02-19T18:23:47.989Z,23.67
2018-02-19T18:26:16.668Z,24.52
2018-02-19T18:28:45.192Z,25.02
2018-02-19T18:31:13.122Z,24.05
2018-02-19T18:33:41.190Z,23.25
2018-02-19T18:36:09.507Z,25.12
2018-02-19T18:38:37.536Z,24.95
2018-02-19T18:41:05.813Z,25.70
2018-02-19T18:43:33.782Z,21.62
2018-02-19T18:46:01.649Z,24.60
2018-02-19T18:48:29.514Z,20.90
2018-02-19T18:50:57.708Z,22.27
2018-02-19T18:53:26.034Z,24.75
2018-02-19T18:55:53.933Z,23.23
2018-02-19T18:58:21.903Z,24.40
2018-02-19T19:00:49.769Z,21.35
2018-02-19T19:03:17.700Z,22.15
2018-02-19T19:05:46.629Z,20.35
2018-02-19T19:08:26.389Z,24.05
2018-02-19T19:10:56.099Z,21.52
2018-02-19T19:13:25.847Z,24.33
2018-02-19T19:15:55.248Z,23.15
2018-02-19T19:18:23.165Z,20.62
2018-02-19T19:20:50.931Z,24.08
2018-02-19T19:23:20.740Z,22.62
2018-02-19T19:25:48.812Z,23.33
2018-02-19T19:28:17.295Z,23.65
2018-02-19T19:30:45.265Z,24.15
2018-02-19T19:33:13.251Z,23.85
2018-02-19T19:35:41.587Z,24.63
2018-02-19T19:38:09.480Z,23.00
2018-02-19T19:40:37.421Z,26.12
2018-02-19T19:43:05.312Z,25.42
2018-02-19T19:45:33.131Z,24.35
2018-02-19T19:48:01.148Z,23.15
2018-02-19T19:50:31.061Z,25.62
2018-02-19T19:52:59.405Z,25.05
2018-02-19T19:55:28.024Z,23.52
2018-02-19T19:57:56.020Z,22.90
2018-02-19T20:00:23.982Z,23.85
2018-02-19T20:02:52.954Z,24.17
2018-02-19T20:05:21.026Z,24.45
2018-02-19T20:07:49.300Z,23.58
2018-02-19T20:10:17.785Z,22.48
2018-02-19T20:12:45.750Z,22.08
2018-02-19T20:15:13.821Z,21.85
2018-02-19T20:17:42.097Z,26.98
2018-02-19T20:20:11.286Z,25.02
2018-02-19T20:22:39.370Z,26.58
2018-02-19T20:25:08.220Z,25.75
2018-02-19T20:27:36.132Z,28.48
2018-02-19T20:30:04.094Z,23.23
2018-02-19T20:32:32.881Z,23.90
2018-02-19T20:35:00.748Z,25.45
2018-02-19T20:37:30.134Z,25.98
2018-02-19T20:39:59.042Z,24.20
2018-02-19T20:42:27.217Z,24.00
2018-02-19T20:44:55.086Z,24.25
2018-02-19T20:47:23.154Z,21.87
2018-02-19T20:49:51.223Z,22.58
2018-02-19T20:52:19.090Z,23.73
2018-02-19T20:54:47.264Z,25.08
2018-02-19T20:57:15.208Z,26.85
2018-02-19T20:59:43.100Z,23.87
2018-02-19T21:02:11.069Z,24.05
2018-02-19T21:04:39.041Z,23.27
2018-02-19T21:07:07.340Z,24.87
2018-02-19T21:09:35.165Z,23.38
2018-02-19T21:12:03.013Z,23.00
2018-02-19T21:14:30.916Z,25.25
2018-02-19T21:16:58.845Z,23.87
2018-02-19T21:19:27.055Z,23.00
2018-02-19T21:21:54.923Z,23.05
2018-02-19T21:24:23.266Z,24.98
2018-02-19T21:26:51.268Z,23.65
2018-02-19T21:29:19.343Z,26.85
2018-02-19T21:31:47.527Z,30.77
2018-02-19T21:34:15.382Z,35.05
2018-02-19T21:36:43.453Z,47.50
2018-02-19T21:39:12.242Z,41.88
2018-02-19T21:41:40.108Z,41.40
2018-02-19T21:44:08.281Z,32.63
2018-02-19T21:46:36.119Z,35.15
2018-02-19T21:49:04.014Z,30.50
2018-02-19T21:51:32.494Z,32.83
2018-02-19T21:54:00.364Z,27.20
2018-02-19T21:56:28.408Z,29.92
2018-02-19T21:58:56.508Z,29.30
2018-02-19T22:01:24.441Z,28.70
2018-02-19T22:03:52.639Z,26.52
2018-02-19T22:06:20.616Z,22.98
2018-02-19T22:08:51.028Z,25.40
2018-02-19T22:11:20.141Z,24.65
2018-02-19T22:13:48.374Z,25.23
2018-02-19T22:16:17.918Z,26.73
2018-02-19T22:18:46.194Z,25.02
2018-02-19T22:21:15.289Z,25.33
2018-02-19T22:23:43.771Z,24.98
2018-02-19T22:26:11.739Z,26.35
2018-02-19T22:28:40.554Z,27.42
2018-02-19T22:31:08.410Z,28.90
2018-02-19T22:33:36.432Z,27.75
2018-02-19T22:36:04.229Z,25.50
2018-02-19T22:38:32.608Z,28.58
2018-02-19T22:41:00.578Z,24.10
2018-02-19T22:43:28.955Z,27.90
2018-02-19T22:45:57.154Z,29.33
2018-02-19T22:48:24.996Z,27.30
2018-02-19T22:50:52.863Z,27.92
2018-02-19T22:53:20.624Z,28.65
2018-02-19T22:55:48.183Z,26.98
2018-02-19T22:58:16.328Z,29.48
2018-02-19T23:00:44.430Z,26.92
2018-02-19T23:03:12.091Z,26.77
2018-02-19T23:05:39.830Z,28.35
2018-02-19T23:08:07.621Z,27.60
2018-02-19T23:10:35.705Z,26.98
2018-02-19T23:13:03.558Z,26.90
2018-02-19T23:15:31.311Z,28.15
2018-02-19T23:17:59.404Z,27.33
2018-02-19T23:20:27.059Z,26.40
2018-02-19T23:22:55.290Z,25.98
2018-02-19T23:25:23.097Z,27.40
2018-02-19T23:27:50.850Z,27.58
2018-02-19T23:30:18.724Z,27.83
2018-02-19T23:32:46.353Z,26.55
2018-02-19T23:35:14.049Z,28.75
2018-02-19T23:37:41.801Z,28.98
2018-02-19T23:40:09.374Z,26.45
2018-02-19T23:42:37.019Z,26.60
2018-02-19T23:45:04.794Z,25.60
2018-02-19T23:47:32.552Z,26.40
2018-02-19T23:50:00.188Z,29.58
2018-02-19T23:52:27.810Z,25.90
2018-02-19T23:54:55.398Z,28.48
2018-02-19T23:57:23.064Z,25.55
2018-02-19T23:59:50.762Z,26.20
